createdAt,value
2017-10-27T05:03:28.369Z,100999.53
2017-10-27T05:05:57.180Z,101000.85
2017-10-27T05:08:25.627Z,100995.12
2017-10-27T05:10:54.088Z,100986.08
2017-10-27T05:13:22.444Z,100990.77
2017-10-27T05:15:51.894Z,101000.17
2017-10-27T05:18:25.460Z,100989.78
2017-10-27T05:20:59.065Z,100988.80
2017-10-27T05:23:32.729Z,100980.62
2017-10-27T05:26:01.128Z,100984.80
2017-10-27T05:28:29.444Z,100986.66
2017-10-27T05:30:57.861Z,100981.43
2017-10-27T05:33:26.148Z,100979.46
2017-10-27T05:35:54.639Z,100982.95
2017-10-27T05:38:22.941Z,100985.34
2017-10-27T05:40:51.288Z,100980.28
2017-10-27T05:43:22.440Z,100977.50
2017-10-27T05:45:50.787Z,100981.84
2017-10-27T05:48:19.088Z,100983.47
2017-10-27T05:50:47.600Z,100975.69
2017-10-27T05:53:16.023Z,100982.59
2017-10-27T05:55:44.340Z,100980.45
2017-10-27T05:58:12.625Z,100988.87
2017-10-27T06:00:40.920Z,100992.57
2017-10-27T06:03:09.299Z,100991.31
2017-10-27T06:05:37.643Z,100997.69
2017-10-27T06:08:06.084Z,101000.41
2017-10-27T06:10:34.409Z,100996.06
2017-10-27T06:13:02.743Z,100997.86
2017-10-27T06:15:31.100Z,100996.10
2017-10-27T06:17:59.452Z,100999.25
2017-10-27T06:20:27.923Z,101000.48
2017-10-27T06:22:56.183Z,101001.46
2017-10-27T06:25:24.486Z,100999.25
2017-10-27T06:27:52.923Z,100995.25
2017-10-27T06:30:21.439Z,100994.30
2017-10-27T06:32:49.756Z,101002.04
2017-10-27T06:35:18.064Z,101009.23
2017-10-27T06:37:46.468Z,101007.61
2017-10-27T06:40:14.942Z,101016.00
2017-10-27T06:42:43.404Z,101017.22
2017-10-27T06:45:11.724Z,101019.15
2017-10-27T06:47:40.042Z,101021.12
2017-10-27T06:50:08.557Z,101017.11
2017-10-27T06:52:36.921Z,101018.57
2017-10-27T06:55:05.388Z,101007.54
2017-10-27T06:57:33.823Z,101005.98
2017-10-27T07:00:02.107Z,101008.52
2017-10-27T07:02:30.504Z,101007.13
2017-10-27T07:04:58.920Z,101018.67
2017-10-27T07:07:27.243Z,101019.83
2017-10-27T07:09:55.519Z,101025.80
2017-10-27T07:12:23.867Z,101025.77
2017-10-27T07:14:52.332Z,101017.11
2017-10-27T07:17:20.674Z,101016.47
2017-10-27T07:19:48.956Z,101014.32
2017-10-27T07:22:17.315Z,101016.59
2017-10-27T07:24:45.604Z,101012.02
2017-10-27T07:27:13.968Z,101013.58
2017-10-27T07:29:42.269Z,101015.20
2017-10-27T07:32:10.571Z,101023.59
2017-10-27T07:34:38.885Z,101029.53
2017-10-27T07:37:07.359Z,101027.53
2017-10-27T07:39:36.124Z,101032.72
2017-10-27T07:42:04.431Z,101038.87
2017-10-27T07:44:32.756Z,101026.34
2017-10-27T07:47:01.072Z,101037.41
2017-10-27T07:49:29.391Z,101029.06
2017-10-27T07:51:57.697Z,101037.41
2017-10-27T07:54:25.955Z,101030.62
2017-10-27T07:56:54.397Z,101036.02
2017-10-27T07:59:22.648Z,101036.25
2017-10-27T08:01:51.081Z,101037.47
2017-10-27T08:04:19.422Z,101047.02
2017-10-27T08:06:47.741Z,101045.25
2017-10-27T08:09:16.652Z,101047.63
2017-10-27T08:11:45.010Z,101037.52
2017-10-27T08:14:13.344Z,101042.06
2017-10-27T08:16:41.724Z,101044.23
2017-10-27T08:19:10.060Z,101045.62
2017-10-27T08:21:38.408Z,101043.66
2017-10-27T08:24:07.350Z,101050.98
2017-10-27T08:26:35.755Z,101041.77
2017-10-27T08:29:04.211Z,101049.31
2017-10-27T08:31:32.621Z,101050.27
2017-10-27T08:34:01.164Z,101055.36
2017-10-27T08:36:29.687Z,101043.71
2017-10-27T08:38:57.987Z,101056.01
2017-10-27T08:41:26.715Z,101048.02
2017-10-27T08:43:55.081Z,101055.67
2017-10-27T08:46:23.408Z,101047.61
2017-10-27T08:48:51.731Z,101047.45
2017-10-27T08:51:20.471Z,101049.92
2017-10-27T08:53:48.815Z,101052.06
2017-10-27T08:56:17.651Z,101046.56
2017-10-27T08:58:46.384Z,101043.30
2017-10-27T09:01:14.769Z,101047.55
2017-10-27T09:03:44.676Z,101040.59
2017-10-27T09:06:13.260Z,101044.66
2017-10-27T09:08:41.693Z,101049.28
2017-10-27T09:11:10.083Z,101051.32
2017-10-27T09:13:38.399Z,101045.69
2017-10-27T09:16:06.883Z,101059.78
2017-10-27T09:18:35.152Z,101061.13
2017-10-27T09:21:03.497Z,101066.73
2017-10-27T09:23:31.815Z,101056.95
2017-10-27T09:26:00.196Z,101058.96
2017-10-27T09:28:28.461Z,101062.12
2017-10-27T09:30:56.977Z,101062.22
2017-10-27T09:33:25.376Z,101062.45
2017-10-27T09:35:53.716Z,101068.84
2017-10-27T09:38:22.007Z,101073.84
2017-10-27T09:40:50.372Z,101079.17
2017-10-27T09:43:18.636Z,101075.57
2017-10-27T09:45:47.185Z,101080.97
2017-10-27T09:48:15.625Z,101081.48
2017-10-27T09:50:43.979Z,101097.52
2017-10-27T09:53:12.751Z,101093.91
2017-10-27T09:55:41.052Z,101095.65
2017-10-27T09:58:09.451Z,101096.23
2017-10-27T10:00:37.822Z,101100.41
2017-10-27T10:03:06.280Z,101103.43
2017-10-27T10:05:34.803Z,101104.24
2017-10-27T10:08:03.181Z,101106.69
2017-10-27T10:10:31.523Z,101106.35
2017-10-27T10:12:59.847Z,101107.16
2017-10-27T10:15:28.161Z,101092.69
2017-10-27T10:17:56.772Z,101109.95
2017-10-27T10:20:25.168Z,101119.13
2017-10-27T10:22:53.508Z,101120.18
2017-10-27T10:25:22.569Z,101122.59
2017-10-27T10:27:50.872Z,101135.37
2017-10-27T10:30:19.366Z,101126.73
2017-10-27T10:32:47.745Z,101128.23
2017-10-27T10:35:16.205Z,101134.21
2017-10-27T10:37:44.532Z,101143.62
2017-10-27T10:40:12.839Z,101148.79
2017-10-27T10:42:41.232Z,101152.32
2017-10-27T10:45:09.543Z,101161.94
2017-10-27T10:47:38.708Z,101163.74
2017-10-27T10:50:07.158Z,101167.30
2017-10-27T10:52:35.743Z,101167.11
2017-10-27T10:55:04.211Z,101173.33
2017-10-27T10:57:32.545Z,101168.16
2017-10-27T11:00:00.781Z,101178.73
2017-10-27T11:02:29.120Z,101188.31
2017-10-27T11:04:57.549Z,101192.73
2017-10-27T11:07:26.004Z,101197.48
2017-10-27T11:09:54.363Z,101204.70
2017-10-27T11:12:22.720Z,101209.86
2017-10-27T11:14:50.996Z,101204.45
2017-10-27T11:17:19.348Z,101197.48
2017-10-27T11:19:47.617Z,101202.31
2017-10-27T11:22:16.077Z,101198.13
2017-10-27T11:24:44.403Z,101216.05
2017-10-27T11:27:12.904Z,101215.06
2017-10-27T11:29:41.197Z,101214.96
2017-10-27T11:32:09.869Z,101224.48
2017-10-27T11:34:38.301Z,101217.10
2017-10-27T11:37:06.831Z,101224.88
2017-10-27T11:39:35.466Z,101232.02
2017-10-27T11:42:04.429Z,101224.55
2017-10-27T11:44:32.821Z,101229.38
2017-10-27T11:47:01.544Z,101224.66
2017-10-27T11:49:29.934Z,101224.38
2017-10-27T11:51:59.060Z,101227.86
2017-10-27T11:54:28.343Z,101231.39
2017-10-27T11:56:57.371Z,101233.94
2017-10-27T11:59:25.851Z,101245.66
2017-10-27T12:01:54.184Z,101251.23
2017-10-27T12:04:23.395Z,101263.74
2017-10-27T12:06:51.715Z,101259.56
2017-10-27T12:09:20.245Z,101268.50
2017-10-27T12:11:48.663Z,101259.73
2017-10-27T12:14:16.996Z,101275.39
2017-10-27T12:16:45.347Z,101287.70
2017-10-27T12:19:13.615Z,101284.58
2017-10-27T12:21:42.036Z,101291.80
2017-10-27T12:24:10.418Z,101293.19
2017-10-27T12:26:39.523Z,101286.05
2017-10-27T12:29:07.892Z,101295.50
2017-10-27T12:31:36.258Z,101294.05
2017-10-27T12:34:04.603Z,101291.27
2017-10-27T12:36:33.102Z,101302.00
2017-10-27T12:39:02.051Z,101317.28
2017-10-27T12:41:30.490Z,101310.66
2017-10-27T12:43:58.900Z,101319.72
2017-10-27T12:46:27.199Z,101323.53
2017-10-27T12:48:55.867Z,101332.55
2017-10-27T12:51:24.341Z,101327.89
2017-10-27T12:53:52.620Z,101332.06
2017-10-27T12:56:20.945Z,101329.65
2017-10-27T12:58:49.273Z,101336.86
2017-10-27T13:01:17.588Z,101338.10
2017-10-27T13:03:45.938Z,101333.66
2017-10-27T13:06:14.236Z,101342.69
2017-10-27T13:08:42.536Z,101340.94
2017-10-27T13:11:10.820Z,101353.31
2017-10-27T13:13:39.238Z,101349.95
2017-10-27T13:16:07.561Z,101362.94
2017-10-27T13:18:35.893Z,101354.89
2017-10-27T13:21:04.384Z,101358.55
2017-10-27T13:23:32.873Z,101368.19
2017-10-27T13:26:01.240Z,101363.02
2017-10-27T13:28:29.687Z,101372.41
2017-10-27T13:30:58.067Z,101366.51
2017-10-27T13:33:26.440Z,101382.84
2017-10-27T13:35:54.908Z,101395.81
2017-10-27T13:38:23.460Z,101394.38
2017-10-27T13:40:52.414Z,101407.49
2017-10-27T13:43:20.729Z,101418.64
2017-10-27T13:45:49.239Z,101418.27
2017-10-27T13:48:17.620Z,101432.36
2017-10-27T13:50:45.980Z,101429.72
2017-10-27T13:53:14.284Z,101430.89
2017-10-27T13:55:42.711Z,101430.13
2017-10-27T13:58:11.008Z,101440.15
2017-10-27T14:00:39.345Z,101446.63
2017-10-27T14:03:07.694Z,101450.13
2017-10-27T14:05:36.707Z,101450.29
2017-10-27T14:08:05.073Z,101454.52
2017-10-27T14:10:33.548Z,101454.23
2017-10-27T14:13:02.372Z,101461.94
2017-10-27T14:15:30.699Z,101464.48
2017-10-27T14:17:58.999Z,101471.22
2017-10-27T14:20:27.487Z,101465.64
2017-10-27T14:22:55.820Z,101465.52
2017-10-27T14:25:25.272Z,101479.86
2017-10-27T14:27:53.601Z,101470.23
2017-10-27T14:30:21.928Z,101476.26
2017-10-27T14:32:50.287Z,101477.37
2017-10-27T14:35:18.680Z,101480.31
2017-10-27T14:37:47.164Z,101480.77
2017-10-27T14:40:15.760Z,101480.27
2017-10-27T14:42:44.123Z,101480.34
2017-10-27T14:45:12.641Z,101486.95
2017-10-27T14:47:41.060Z,101488.06
2017-10-27T14:50:10.462Z,101489.16
2017-10-27T14:52:38.979Z,101500.47
2017-10-27T14:55:07.325Z,101500.80
2017-10-27T14:57:35.669Z,101495.84
2017-10-27T15:00:04.119Z,101501.55
2017-10-27T15:02:32.466Z,101518.48
2017-10-27T15:05:00.734Z,101519.88
2017-10-27T15:07:29.188Z,101518.19
2017-10-27T15:09:58.544Z,101523.85
2017-10-27T15:12:27.001Z,101519.70
2017-10-27T15:14:55.559Z,101524.80
2017-10-27T15:17:23.924Z,101525.03
2017-10-27T15:19:53.262Z,101522.49
2017-10-27T15:22:21.640Z,101530.61
2017-10-27T15:24:51.052Z,101539.83
2017-10-27T15:27:19.420Z,101546.68
2017-10-27T15:29:47.922Z,101560.83
2017-10-27T15:32:16.330Z,101572.50
2017-10-27T15:34:44.721Z,101578.28
2017-10-27T15:37:13.255Z,101585.82
2017-10-27T15:39:41.560Z,101585.86
2017-10-27T15:42:09.900Z,101591.48
2017-10-27T15:44:38.258Z,101599.06
2017-10-27T15:47:06.654Z,101608.56
2017-10-27T15:49:34.983Z,101608.56
2017-10-27T15:52:03.367Z,101617.17
2017-10-27T15:54:31.735Z,101614.80
2017-10-27T15:57:00.071Z,101617.34
2017-10-27T15:59:28.404Z,101621.30
2017-10-27T16:01:57.016Z,101627.75
2017-10-27T16:04:25.336Z,101629.88
2017-10-27T16:06:53.968Z,101635.86
2017-10-27T16:09:23.248Z,101639.83
2017-10-27T16:11:51.583Z,101652.30
2017-10-27T16:14:19.908Z,101659.17
2017-10-27T16:16:48.389Z,101662.45
2017-10-27T16:19:16.724Z,101668.93
2017-10-27T16:21:45.115Z,101666.93
2017-10-27T16:24:13.427Z,101662.29
2017-10-27T16:26:41.754Z,101664.64
2017-10-27T16:29:10.159Z,101669.77
2017-10-27T16:31:38.723Z,101670.34
2017-10-27T16:34:07.191Z,101683.05
2017-10-27T16:36:35.503Z,101680.18
2017-10-27T16:39:03.932Z,101678.34
2017-10-27T16:41:32.267Z,101687.86
2017-10-27T16:44:00.577Z,101693.46
2017-10-27T16:46:29.480Z,101685.27
2017-10-27T16:48:58.096Z,101678.13
2017-10-27T16:51:26.528Z,101686.69
2017-10-27T16:53:54.872Z,101691.55
2017-10-27T16:56:23.179Z,101695.57
2017-10-27T16:58:52.098Z,101698.36
2017-10-27T17:01:20.467Z,101710.90
2017-10-27T17:03:48.759Z,101703.93
2017-10-27T17:06:17.251Z,101706.72
2017-10-27T17:08:45.561Z,101707.92
2017-10-27T17:11:14.279Z,101709.09
2017-10-27T17:13:43.871Z,101714.88
2017-10-27T17:16:13.062Z,101720.95
2017-10-27T17:18:41.926Z,101728.25
2017-10-27T17:21:10.981Z,101728.66
2017-10-27T17:23:40.587Z,101727.84
2017-10-27T17:26:09.484Z,101727.84
2017-10-27T17:28:37.967Z,101729.42
2017-10-27T17:31:06.431Z,101739.80
2017-10-27T17:33:34.728Z,101746.20
2017-10-27T17:36:03.188Z,101744.39
2017-10-27T17:38:32.557Z,101744.39
2017-10-27T17:41:00.892Z,101747.43
2017-10-27T17:43:29.392Z,101741.13
2017-10-27T17:45:57.881Z,101745.71
2017-10-27T17:48:26.181Z,101741.20
2017-10-27T17:50:54.748Z,101744.37
2017-10-27T17:53:23.144Z,101739.81
2017-10-27T17:55:51.481Z,101745.59
2017-10-27T17:58:19.777Z,101741.20
2017-10-27T18:00:48.240Z,101746.78
2017-10-27T18:03:17.246Z,101743.39
2017-10-27T18:05:46.217Z,101741.83
2017-10-27T18:08:14.559Z,101754.38
2017-10-27T18:10:43.506Z,101750.55
2017-10-27T18:13:12.839Z,101752.98
2017-10-27T18:15:41.200Z,101755.19
2017-10-27T18:18:14.404Z,101755.36
2017-10-27T18:20:43.671Z,101755.36
2017-10-27T18:23:12.067Z,101752.98
2017-10-27T18:25:40.520Z,101757.41
2017-10-27T18:28:08.991Z,101754.78
2017-10-27T18:30:38.162Z,101755.03
2017-10-27T18:33:06.652Z,101750.44
2017-10-27T18:35:35.192Z,101742.48
2017-10-27T18:38:04.360Z,101745.84
2017-10-27T18:40:32.708Z,101746.42
2017-10-27T18:43:01.160Z,101744.45
2017-10-27T18:45:29.515Z,101745.84
2017-10-27T18:47:57.955Z,101747.41
2017-10-27T18:50:26.358Z,101747.56
2017-10-27T18:52:54.637Z,101754.53
2017-10-27T18:55:23.845Z,101753.39
2017-10-27T18:58:00.234Z,101761.75
2017-10-27T19:00:31.879Z,101759.32
2017-10-27T19:03:01.236Z,101769.86
2017-10-27T19:05:29.747Z,101759.13
2017-10-27T19:07:59.629Z,101764.95
2017-10-27T19:10:28.069Z,101765.11
2017-10-27T19:12:56.356Z,101769.70
2017-10-27T19:15:25.427Z,101767.73
2017-10-27T19:17:54.309Z,101770.52
2017-10-27T19:20:22.636Z,101771.09
2017-10-27T19:22:51.238Z,101776.51
2017-10-27T19:25:19.808Z,101745.34
2017-10-27T19:27:48.332Z,101767.48
2017-10-27T19:30:16.985Z,101771.91
2017-10-27T19:32:45.951Z,101762.00
2017-10-27T19:35:14.403Z,101757.25
2017-10-27T19:37:42.761Z,101759.88
2017-10-27T19:40:11.647Z,101749.54
2017-10-27T19:42:40.297Z,101752.33
2017-10-27T19:45:10.113Z,101755.52
2017-10-27T19:47:38.655Z,101755.11
2017-10-27T19:50:07.176Z,101755.28
2017-10-27T19:52:35.561Z,101754.95
2017-10-27T19:55:04.003Z,101762.91
2017-10-27T19:57:33.032Z,101755.94
2017-10-27T20:00:02.050Z,101750.11
2017-10-27T20:02:31.719Z,101746.34
2017-10-27T20:05:00.044Z,101736.02
2017-10-27T20:07:28.431Z,101739.95
2017-10-27T20:09:56.855Z,101743.72
2017-10-27T20:12:26.155Z,101744.12
2017-10-27T20:14:56.646Z,101742.48
2017-10-27T20:17:25.192Z,101734.94
2017-10-27T20:19:55.004Z,101741.34
2017-10-27T20:22:23.683Z,101740.93
2017-10-27T20:24:52.396Z,101739.13
2017-10-27T20:27:22.155Z,101732.08
2017-10-27T20:29:51.897Z,101736.42
2017-10-27T20:32:22.496Z,101732.24
2017-10-27T20:34:51.327Z,101739.53
2017-10-27T20:37:19.774Z,101735.44
2017-10-27T20:39:48.136Z,101730.19
2017-10-27T20:42:16.451Z,101723.06
2017-10-27T20:44:44.817Z,101722.65
2017-10-27T20:47:13.197Z,101716.74
2017-10-27T20:49:41.497Z,101714.73
2017-10-27T20:52:09.847Z,101711.98
2017-10-27T20:54:40.376Z,101722.81
2017-10-27T20:57:12.263Z,101715.52
2017-10-27T20:59:41.372Z,101713.19
2017-10-27T21:02:10.055Z,101715.11
2017-10-27T21:04:38.385Z,101723.39
2017-10-27T21:07:08.376Z,101722.02
2017-10-27T21:09:36.973Z,101726.45
2017-10-27T21:12:05.276Z,101717.59
2017-10-27T21:14:33.635Z,101715.78
2017-10-27T21:17:02.529Z,101726.85
2017-10-27T21:19:31.023Z,101731.45
2017-10-27T21:21:59.556Z,101729.17
2017-10-27T21:24:28.523Z,101726.14
2017-10-27T21:26:56.856Z,101721.55
2017-10-27T21:29:25.892Z,101726.06
2017-10-27T21:31:54.475Z,101720.48
2017-10-27T21:34:23.146Z,101732.04
2017-10-27T21:36:51.796Z,101725.44
2017-10-27T21:39:20.307Z,101727.20
2017-10-27T21:41:48.886Z,101727.80
2017-10-27T21:44:17.240Z,101729.28
2017-10-27T21:46:46.173Z,101724.53
2017-10-27T21:49:14.842Z,101720.76
2017-10-27T21:51:43.188Z,101715.87
2017-10-27T21:54:11.496Z,101710.59
2017-10-27T21:56:39.862Z,101715.51
2017-10-27T21:59:08.190Z,101711.33
2017-10-27T22:01:36.571Z,101704.72
2017-10-27T22:04:05.216Z,101698.33
2017-10-27T22:06:33.561Z,101693.05
2017-10-27T22:09:01.980Z,101698.95
2017-10-27T22:11:30.354Z,101705.34
2017-10-27T22:13:59.013Z,101689.56
2017-10-27T22:16:28.219Z,101680.87
2017-10-27T22:18:56.864Z,101680.95
2017-10-27T22:21:25.221Z,101678.16
2017-10-27T22:23:53.704Z,101681.25
2017-10-27T22:26:22.047Z,101671.86
2017-10-27T22:28:50.557Z,101673.08
2017-10-27T22:31:18.910Z,101667.84
2017-10-27T22:33:47.265Z,101662.02
2017-10-27T22:36:15.695Z,101667.52
2017-10-27T22:38:44.028Z,101670.87
2017-10-27T22:41:12.515Z,101673.16
2017-10-27T22:43:40.972Z,101670.78
2017-10-27T22:46:09.297Z,101674.39
2017-10-27T22:48:37.961Z,101666.44
2017-10-27T22:51:06.440Z,101662.02
2017-10-27T22:53:34.754Z,101658.73
2017-10-27T22:56:03.324Z,101662.20
2017-10-27T22:58:31.644Z,101648.33
2017-10-27T23:00:59.996Z,101649.72
2017-10-27T23:03:28.296Z,101641.89
2017-10-27T23:05:56.964Z,101641.80
2017-10-27T23:08:25.255Z,101636.80
2017-10-27T23:10:53.684Z,101632.55
2017-10-27T23:13:22.136Z,101628.45
2017-10-27T23:15:50.443Z,101623.28
2017-10-27T23:18:18.763Z,101620.61
2017-10-27T23:20:47.196Z,101610.86
2017-10-27T23:23:15.500Z,101607.42
2017-10-27T23:25:43.795Z,101611.67
2017-10-27T23:28:12.071Z,101603.98
2017-10-27T23:30:40.395Z,101602.09
2017-10-27T23:33:08.733Z,101600.64
2017-10-27T23:35:37.268Z,101600.81
2017-10-27T23:38:05.565Z,101587.38
2017-10-27T23:40:33.887Z,101586.44
2017-10-27T23:43:02.211Z,101573.91
2017-10-27T23:45:30.532Z,101579.92
2017-10-27T23:47:58.852Z,101578.12
2017-10-27T23:50:27.211Z,101576.23
2017-10-27T23:52:55.779Z,101576.81
2017-10-27T23:55:24.082Z,101572.47
2017-10-27T23:57:52.331Z,101574.52
